sensor_id;sensor_type;location;lat;lon;timestamp;temperature;humidity
23347;DHT22;36852;45.466;11.066;2024-03-02T00:00:31;12.20;99.90
23347;DHT22;36852;45.466;11.066;2024-03-02T00:03:03;12.20;99.90
23347;DHT22;36852;45.466;11.066;2024-03-02T00:05:33;12.10;99.90
23347;DHT22;36852;45.466;11.066;2024-03-02T00:08:06;12.10;99.90
23347;DHT22;36852;45.466;11.066;2024-03-02T00:10:39;12.10;99.90
23347;DHT22;36852;45.466;11.066;2024-03-02T00:13:29;12.10;99.90
23347;DHT22;36852;45.466;11.066;2024-03-02T00:16:00;12.10;99.90
23347;DHT22;36852;45.466;11.066;2024-03-02T00:18:34;12.10;99.90
23347;DHT22;36852;45.466;11.066;2024-03-02T00:21:21;12.10;99.90
23347;DHT22;36852;45.466;11.066;2024-03-02T00:24:31;12.20;99.90
23347;DHT22;36852;45.466;11.066;2024-03-02T00:27:15;12.20;99.90
23347;DHT22;36852;45.466;11.066;2024-03-02T00:29:49;12.30;99.90
23347;DHT22;36852;45.466;11.066;2024-03-02T00:32:19;12.20;99.90
23347;DHT22;36852;45.466;11.066;2024-03-02T00:34:48;12.20;99.90
23347;DHT22;36852;45.466;11.066;2024-03-02T00:37:16;12.20;99.90
23347;DHT22;36852;45.466;11.066;2024-03-02T00:39:48;12.20;99.90
23347;DHT22;36852;45.466;11.066;2024-03-02T00:42:17;12.20;99.90
23347;DHT22;36852;45.466;11.066;2024-03-02T00:44:50;12.20;99.90
23347;DHT22;36852;45.466;11.066;2024-03-02T00:47:18;12.20;99.90
23347;DHT22;36852;45.466;11.066;2024-03-02T00:49:51;12.20;99.90
23347;DHT22;36852;45.466;11.066;2024-03-02T00:52:21;12.20;99.90
23347;DHT22;36852;45.466;11.066;2024-03-02T00:54:50;12.20;99.90
23347;DHT22;36852;45.466;11.066;2024-03-02T00:57:18;12.20;99.90
23347;DHT22;36852;45.466;11.066;2024-03-02T00:59:51;12.20;99.90
23347;DHT22;36852;45.466;11.066;2024-03-02T01:03:16;12.20;99.90
23347;DHT22;36852;45.466;11.066;2024-03-02T01:09:22;12.30;99.90
23347;DHT22;36852;45.466;11.066;2024-03-02T01:12:24;12.30;99.90
23347;DHT22;36852;45.466;11.066;2024-03-02T01:34:21;12.30;99.90
23347;DHT22;36852;45.466;11.066;2024-03-02T01:43:09;12.30;99.90
23347;DHT22;36852;45.466;11.066;2024-03-02T01:46:15;12.30;99.90
23347;DHT22;36852;45.466;11.066;2024-03-02T01:49:12;12.30;99.90
23347;DHT22;36852;45.466;11.066;2024-03-02T01:52:03;12.40;99.90
23347;DHT22;36852;45.466;11.066;2024-03-02T01:54:53;12.40;99.90
23347;DHT22;36852;45.466;11.066;2024-03-02T01:58:04;12.40;99.90
23347;DHT22;36852;45.466;11.066;2024-03-02T02:00:40;12.40;99.90
23347;DHT22;36852;45.466;11.066;2024-03-02T02:03:13;12.40;99.90
23347;DHT22;36852;45.466;11.066;2024-03-02T02:12:48;12.30;99.90
23347;DHT22;36852;45.466;11.066;2024-03-02T02:15:40;12.30;99.90
23347;DHT22;36852;45.466;11.066;2024-03-02T02:18:35;12.30;99.90
23347;DHT22;36852;45.466;11.066;2024-03-02T02:21:42;12.30;99.90
23347;DHT22;36852;45.466;11.066;2024-03-02T02:24:13;12.30;99.90
23347;DHT22;36852;45.466;11.066;2024-03-02T02:27:07;12.30;99.90
23347;DHT22;36852;45.466;11.066;2024-03-02T02:30:11;12.30;99.90
23347;DHT22;36852;45.466;11.066;2024-03-02T02:33:11;12.30;99.90
23347;DHT22;36852;45.466;11.066;2024-03-02T02:36:37;12.30;99.90
23347;DHT22;36852;45.466;11.066;2024-03-02T02:39:30;12.30;99.90
23347;DHT22;36852;45.466;11.066;2024-03-02T02:45:30;12.20;99.90
23347;DHT22;36852;45.466;11.066;2024-03-02T02:48:50;12.20;99.90
23347;DHT22;36852;45.466;11.066;2024-03-02T02:52:00;12.30;99.90
23347;DHT22;36852;45.466;11.066;2024-03-02T02:58:20;12.20;99.90
23347;DHT22;36852;45.466;11.066;2024-03-02T03:01:21;12.20;99.90
23347;DHT22;36852;45.466;11.066;2024-03-02T03:04:11;12.30;99.90
23347;DHT22;36852;45.466;11.066;2024-03-02T03:14:02;12.30;99.90
23347;DHT22;36852;45.466;11.066;2024-03-02T03:16:48;12.30;99.90
23347;DHT22;36852;45.466;11.066;2024-03-02T03:19:49;12.30;99.90
23347;DHT22;36852;45.466;11.066;2024-03-02T03:22:19;12.30;99.90
23347;DHT22;36852;45.466;11.066;2024-03-02T03:25:17;12.30;99.90
23347;DHT22;36852;45.466;11.066;2024-03-02T03:28:31;12.30;99.90
23347;DHT22;36852;45.466;11.066;2024-03-02T03:31:27;12.30;99.90
23347;DHT22;36852;45.466;11.066;2024-03-02T03:34:17;12.20;99.90
23347;DHT22;36852;45.466;11.066;2024-03-02T03:37:30;12.30;99.90
23347;DHT22;36852;45.466;11.066;2024-03-02T03:40:15;12.30;99.90
23347;DHT22;36852;45.466;11.066;2024-03-02T03:42:51;12.30;99.90
23347;DHT22;36852;45.466;11.066;2024-03-02T03:45:24;12.30;99.90
23347;DHT22;36852;45.466;11.066;2024-03-02T03:48:19;12.40;99.90
23347;DHT22;36852;45.466;11.066;2024-03-02T03:50:54;12.40;99.90
23347;DHT22;36852;45.466;11.066;2024-03-02T03:53:48;12.30;99.90
23347;DHT22;36852;45.466;11.066;2024-03-02T03:56:53;12.40;99.90
23347;DHT22;36852;45.466;11.066;2024-03-02T03:59:25;12.40;99.90
23347;DHT22;36852;45.466;11.066;2024-03-02T04:02:14;12.40;99.90
23347;DHT22;36852;45.466;11.066;2024-03-02T04:04:58;12.40;99.90
23347;DHT22;36852;45.466;11.066;2024-03-02T04:07:52;12.40;99.90
23347;DHT22;36852;45.466;11.066;2024-03-02T04:10:54;12.40;99.90
23347;DHT22;36852;45.466;11.066;2024-03-02T04:13:22;12.40;99.90
23347;DHT22;36852;45.466;11.066;2024-03-02T04:16:13;12.40;99.90
23347;DHT22;36852;45.466;11.066;2024-03-02T04:18:43;12.40;99.90
23347;DHT22;36852;45.466;11.066;2024-03-02T04:21:18;12.40;99.90
23347;DHT22;36852;45.466;11.066;2024-03-02T04:23:49;12.40;99.90
23347;DHT22;36852;45.466;11.066;2024-03-02T04:26:44;12.40;99.90
23347;DHT22;36852;45.466;11.066;2024-03-02T04:29:23;12.40;99.90
23347;DHT22;36852;45.466;11.066;2024-03-02T04:32:04;12.40;99.90
23347;DHT22;36852;45.466;11.066;2024-03-02T04:34:59;12.30;99.90
23347;DHT22;36852;45.466;11.066;2024-03-02T04:37:28;12.30;99.90
23347;DHT22;36852;45.466;11.066;2024-03-02T04:40:01;12.30;99.90
23347;DHT22;36852;45.466;11.066;2024-03-02T04:43:00;12.30;99.90
23347;DHT22;36852;45.466;11.066;2024-03-02T04:45:31;12.30;99.90
23347;DHT22;36852;45.466;11.066;2024-03-02T04:48:14;12.20;99.90
23347;DHT22;36852;45.466;11.066;2024-03-02T04:51:04;12.20;99.90
23347;DHT22;36852;45.466;11.066;2024-03-02T04:53:38;12.20;99.90
23347;DHT22;36852;45.466;11.066;2024-03-02T04:56:41;12.20;99.90
23347;DHT22;36852;45.466;11.066;2024-03-02T04:59:44;12.20;99.90
23347;DHT22;36852;45.466;11.066;2024-03-02T05:02:41;12.30;99.90
23347;DHT22;36852;45.466;11.066;2024-03-02T05:05:15;12.20;99.90
23347;DHT22;36852;45.466;11.066;2024-03-02T05:07:54;12.20;99.90
23347;DHT22;36852;45.466;11.066;2024-03-02T05:10:46;12.20;99.90
23347;DHT22;36852;45.466;11.066;2024-03-02T05:13:36;12.30;99.90
23347;DHT22;36852;45.466;11.066;2024-03-02T05:16:36;12.30;99.90
23347;DHT22;36852;45.466;11.066;2024-03-02T05:19:33;12.20;99.90
23347;DHT22;36852;45.466;11.066;2024-03-02T05:22:16;12.30;99.90
23347;DHT22;36852;45.466;11.066;2024-03-02T05:24:56;12.20;99.90
23347;DHT22;36852;45.466;11.066;2024-03-02T05:27:40;12.20;99.90
23347;DHT22;36852;45.466;11.066;2024-03-02T05:31:12;12.20;99.90
23347;DHT22;36852;45.466;11.066;2024-03-02T05:34:12;12.20;99.90
23347;DHT22;36852;45.466;11.066;2024-03-02T07:34:40;12.60;99.90
23347;DHT22;36852;45.466;11.066;2024-03-02T07:47:09;12.70;99.90
23347;DHT22;36852;45.466;11.066;2024-03-02T07:49:52;12.70;99.90
23347;DHT22;36852;45.466;11.066;2024-03-02T07:52:51;12.60;99.90
23347;DHT22;36852;45.466;11.066;2024-03-02T07:55:25;12.70;99.90
23347;DHT22;36852;45.466;11.066;2024-03-02T07:57:58;12.70;99.90
23347;DHT22;36852;45.466;11.066;2024-03-02T08:10:34;12.70;99.90
23347;DHT22;36852;45.466;11.066;2024-03-02T08:13:39;12.60;99.90
23347;DHT22;36852;45.466;11.066;2024-03-02T08:23:28;12.30;99.90
23347;DHT22;36852;45.466;11.066;2024-03-02T08:29:42;12.10;99.90
23347;DHT22;36852;45.466;11.066;2024-03-02T08:36:19;12.00;99.90
23347;DHT22;36852;45.466;11.066;2024-03-02T08:38:50;11.90;99.90
23347;DHT22;36852;45.466;11.066;2024-03-02T08:41:53;11.90;99.90
23347;DHT22;36852;45.466;11.066;2024-03-02T08:55:31;11.90;99.90
23347;DHT22;36852;45.466;11.066;2024-03-02T09:04:12;11.70;99.90
23347;DHT22;36852;45.466;11.066;2024-03-02T09:06:40;11.80;99.90
23347;DHT22;36852;45.466;11.066;2024-03-02T09:09:29;11.80;99.90
23347;DHT22;36852;45.466;11.066;2024-03-02T09:12:24;11.80;99.90
23347;DHT22;36852;45.466;11.066;2024-03-02T09:14:53;11.90;99.90
23347;DHT22;36852;45.466;11.066;2024-03-02T09:20:39;11.90;99.90
23347;DHT22;36852;45.466;11.066;2024-03-02T09:23:15;12.00;99.90
23347;DHT22;36852;45.466;11.066;2024-03-02T09:25:45;12.00;99.90
23347;DHT22;36852;45.466;11.066;2024-03-02T09:28:16;12.00;99.90
23347;DHT22;36852;45.466;11.066;2024-03-02T09:33:55;12.20;99.90
23347;DHT22;36852;45.466;11.066;2024-03-02T09:36:29;12.20;99.90
23347;DHT22;36852;45.466;11.066;2024-03-02T09:39:00;12.30;99.90
23347;DHT22;36852;45.466;11.066;2024-03-02T09:41:35;12.40;99.90
23347;DHT22;36852;45.466;11.066;2024-03-02T09:44:12;12.40;99.90
23347;DHT22;36852;45.466;11.066;2024-03-02T09:46:50;12.30;99.90
23347;DHT22;36852;45.466;11.066;2024-03-02T09:49:18;12.30;99.90
23347;DHT22;36852;45.466;11.066;2024-03-02T09:51:48;12.50;99.90
23347;DHT22;36852;45.466;11.066;2024-03-02T09:54:59;12.50;99.90
23347;DHT22;36852;45.466;11.066;2024-03-02T09:57:27;12.50;99.90
23347;DHT22;36852;45.466;11.066;2024-03-02T09:59:55;12.50;99.90
23347;DHT22;36852;45.466;11.066;2024-03-02T10:02:33;12.40;99.90
23347;DHT22;36852;45.466;11.066;2024-03-02T10:05:00;12.50;99.90
23347;DHT22;36852;45.466;11.066;2024-03-02T10:07:28;12.50;99.90
23347;DHT22;36852;45.466;11.066;2024-03-02T10:09:58;12.60;99.90
23347;DHT22;36852;45.466;11.066;2024-03-02T10:12:26;12.60;99.90
23347;DHT22;36852;45.466;11.066;2024-03-02T10:24:06;12.70;99.90
23347;DHT22;36852;45.466;11.066;2024-03-02T10:26:32;12.70;99.90
23347;DHT22;36852;45.466;11.066;2024-03-02T10:29:00;12.70;99.90
23347;DHT22;36852;45.466;11.066;2024-03-02T10:31:30;12.70;99.90
23347;DHT22;36852;45.466;11.066;2024-03-02T10:33:59;12.70;99.90
23347;DHT22;36852;45.466;11.066;2024-03-02T10:36:29;12.60;99.90
23347;DHT22;36852;45.466;11.066;2024-03-02T10:38:59;12.60;99.90
23347;DHT22;36852;45.466;11.066;2024-03-02T10:41:33;12.60;99.90
23347;DHT22;36852;45.466;11.066;2024-03-02T10:44:08;12.70;99.90
23347;DHT22;36852;45.466;11.066;2024-03-02T10:46:34;12.80;99.90
23347;DHT22;36852;45.466;11.066;2024-03-02T10:49:06;12.90;99.90
23347;DHT22;36852;45.466;11.066;2024-03-02T10:51:35;12.90;99.90
23347;DHT22;36852;45.466;11.066;2024-03-02T10:54:04;12.90;99.90
23347;DHT22;36852;45.466;11.066;2024-03-02T10:56:43;13.00;99.90
23347;DHT22;36852;45.466;11.066;2024-03-02T10:59:31;13.10;99.90
23347;DHT22;36852;45.466;11.066;2024-03-02T11:02:00;13.10;99.90
23347;DHT22;36852;45.466;11.066;2024-03-02T11:04:34;13.00;99.90
23347;DHT22;36852;45.466;11.066;2024-03-02T11:07:10;13.00;99.90
23347;DHT22;36852;45.466;11.066;2024-03-02T11:09:41;13.20;99.90
23347;DHT22;36852;45.466;11.066;2024-03-02T11:12:19;13.30;99.90
23347;DHT22;36852;45.466;11.066;2024-03-02T11:14:45;13.40;99.90
23347;DHT22;36852;45.466;11.066;2024-03-02T11:17:18;13.50;99.90
23347;DHT22;36852;45.466;11.066;2024-03-02T11:19:47;13.40;99.90
23347;DHT22;36852;45.466;11.066;2024-03-02T11:22:17;13.50;99.90
23347;DHT22;36852;45.466;11.066;2024-03-02T11:24:50;13.40;99.90
23347;DHT22;36852;45.466;11.066;2024-03-02T11:33:07;13.20;99.90
23347;DHT22;36852;45.466;11.066;2024-03-02T11:35:48;13.20;99.90
23347;DHT22;36852;45.466;11.066;2024-03-02T11:38:18;13.30;99.90
23347;DHT22;36852;45.466;11.066;2024-03-02T11:40:46;13.30;99.90
23347;DHT22;36852;45.466;11.066;2024-03-02T11:43:14;13.20;99.90
23347;DHT22;36852;45.466;11.066;2024-03-02T11:46:05;13.10;99.90
23347;DHT22;36852;45.466;11.066;2024-03-02T11:48:38;13.00;99.90
23347;DHT22;36852;45.466;11.066;2024-03-02T11:54:04;12.90;99.90
23347;DHT22;36852;45.466;11.066;2024-03-02T11:56:34;12.80;99.90
23347;DHT22;36852;45.466;11.066;2024-03-02T11:59:03;12.90;99.90
23347;DHT22;36852;45.466;11.066;2024-03-02T12:04:29;12.70;99.90
23347;DHT22;36852;45.466;11.066;2024-03-02T12:07:00;12.70;99.90
23347;DHT22;36852;45.466;11.066;2024-03-02T12:15:25;12.60;99.90
23347;DHT22;36852;45.466;11.066;2024-03-02T12:17:57;12.60;99.90
23347;DHT22;36852;45.466;11.066;2024-03-02T12:20:29;12.60;99.90
23347;DHT22;36852;45.466;11.066;2024-03-02T12:22:59;12.60;99.90
23347;DHT22;36852;45.466;11.066;2024-03-02T12:25:38;12.70;99.90
23347;DHT22;36852;45.466;11.066;2024-03-02T12:28:10;12.70;99.90
23347;DHT22;36852;45.466;11.066;2024-03-02T12:30:44;12.80;99.90
23347;DHT22;36852;45.466;11.066;2024-03-02T12:33:18;12.90;99.90
23347;DHT22;36852;45.466;11.066;2024-03-02T12:35:49;12.90;99.90
23347;DHT22;36852;45.466;11.066;2024-03-02T12:38:17;13.00;99.90
23347;DHT22;36852;45.466;11.066;2024-03-02T12:40:48;13.00;99.90
23347;DHT22;36852;45.466;11.066;2024-03-02T12:43:19;13.00;99.90
23347;DHT22;36852;45.466;11.066;2024-03-02T12:45:48;13.10;99.90
23347;DHT22;36852;45.466;11.066;2024-03-02T12:48:18;13.20;99.90
23347;DHT22;36852;45.466;11.066;2024-03-02T12:50:49;13.20;99.90
23347;DHT22;36852;45.466;11.066;2024-03-02T12:53:21;13.40;99.90
23347;DHT22;36852;45.466;11.066;2024-03-02T12:55:53;13.50;99.90
23347;DHT22;36852;45.466;11.066;2024-03-02T12:58:24;13.50;99.90
23347;DHT22;36852;45.466;11.066;2024-03-02T13:01:11;13.60;99.90
23347;DHT22;36852;45.466;11.066;2024-03-02T13:03:49;13.60;99.90
23347;DHT22;36852;45.466;11.066;2024-03-02T13:06:40;13.50;99.90
23347;DHT22;36852;45.466;11.066;2024-03-02T13:09:29;13.30;99.90
23347;DHT22;36852;45.466;11.066;2024-03-02T13:11:57;13.20;99.90
23347;DHT22;36852;45.466;11.066;2024-03-02T13:14:55;13.00;99.90
23347;DHT22;36852;45.466;11.066;2024-03-02T13:17:42;12.90;99.90
23347;DHT22;36852;45.466;11.066;2024-03-02T13:20:10;12.90;99.90
23347;DHT22;36852;45.466;11.066;2024-03-02T13:22:39;12.80;99.90
23347;DHT22;36852;45.466;11.066;2024-03-02T13:25:27;12.70;99.90
23347;DHT22;36852;45.466;11.066;2024-03-02T13:27:59;12.80;99.90
23347;DHT22;36852;45.466;11.066;2024-03-02T13:30:29;12.70;99.90
23347;DHT22;36852;45.466;11.066;2024-03-02T13:33:09;12.70;99.90
23347;DHT22;36852;45.466;11.066;2024-03-02T13:35:38;12.70;99.90
23347;DHT22;36852;45.466;11.066;2024-03-02T13:38:08;12.60;99.90
23347;DHT22;36852;45.466;11.066;2024-03-02T13:40:37;12.60;99.90
23347;DHT22;36852;45.466;11.066;2024-03-02T13:43:09;12.60;99.90
23347;DHT22;36852;45.466;11.066;2024-03-02T13:45:41;12.70;99.90
23347;DHT22;36852;45.466;11.066;2024-03-02T13:48:09;12.70;99.90
23347;DHT22;36852;45.466;11.066;2024-03-02T13:50:38;12.80;99.90
23347;DHT22;36852;45.466;11.066;2024-03-02T13:53:06;12.90;99.90
23347;DHT22;36852;45.466;11.066;2024-03-02T13:55:37;13.00;99.90
23347;DHT22;36852;45.466;11.066;2024-03-02T13:58:10;13.00;99.90
23347;DHT22;36852;45.466;11.066;2024-03-02T14:00:39;13.00;99.90
23347;DHT22;36852;45.466;11.066;2024-03-02T14:03:08;13.10;99.90
23347;DHT22;36852;45.466;11.066;2024-03-02T14:05:37;13.10;99.90
23347;DHT22;36852;45.466;11.066;2024-03-02T14:08:06;13.20;99.90
23347;DHT22;36852;45.466;11.066;2024-03-02T14:10:36;13.20;99.90
23347;DHT22;36852;45.466;11.066;2024-03-02T14:13:08;13.40;99.90
23347;DHT22;36852;45.466;11.066;2024-03-02T14:15:37;13.50;99.90
23347;DHT22;36852;45.466;11.066;2024-03-02T14:18:08;13.60;99.90
23347;DHT22;36852;45.466;11.066;2024-03-02T14:20:39;13.50;99.90
23347;DHT22;36852;45.466;11.066;2024-03-02T14:23:10;13.50;99.90
23347;DHT22;36852;45.466;11.066;2024-03-02T14:25:39;13.50;99.90
23347;DHT22;36852;45.466;11.066;2024-03-02T14:28:08;13.50;99.90
23347;DHT22;36852;45.466;11.066;2024-03-02T14:30:41;13.50;99.90
23347;DHT22;36852;45.466;11.066;2024-03-02T14:33:09;13.50;99.90
23347;DHT22;36852;45.466;11.066;2024-03-02T14:35:39;13.50;99.90
23347;DHT22;36852;45.466;11.066;2024-03-02T14:38:07;13.60;99.90
23347;DHT22;36852;45.466;11.066;2024-03-02T14:40:38;13.40;99.90
23347;DHT22;36852;45.466;11.066;2024-03-02T14:43:14;13.50;99.90
23347;DHT22;36852;45.466;11.066;2024-03-02T14:49:07;13.30;99.90
23347;DHT22;36852;45.466;11.066;2024-03-02T14:51:39;13.20;99.90
23347;DHT22;36852;45.466;11.066;2024-03-02T14:54:07;13.20;99.90
23347;DHT22;36852;45.466;11.066;2024-03-02T14:56:35;13.20;99.90
23347;DHT22;36852;45.466;11.066;2024-03-02T14:59:06;13.20;99.90
23347;DHT22;36852;45.466;11.066;2024-03-02T15:01:34;13.20;99.90
23347;DHT22;36852;45.466;11.066;2024-03-02T15:04:06;13.10;99.90
23347;DHT22;36852;45.466;11.066;2024-03-02T15:06:40;13.00;99.90
23347;DHT22;36852;45.466;11.066;2024-03-02T15:09:08;12.90;99.90
23347;DHT22;36852;45.466;11.066;2024-03-02T15:11:37;12.80;99.90
23347;DHT22;36852;45.466;11.066;2024-03-02T15:14:07;12.80;99.90
23347;DHT22;36852;45.466;11.066;2024-03-02T15:16:37;12.70;99.90
23347;DHT22;36852;45.466;11.066;2024-03-02T15:19:05;12.70;99.90
23347;DHT22;36852;45.466;11.066;2024-03-02T15:21:39;12.70;99.90
23347;DHT22;36852;45.466;11.066;2024-03-02T15:24:07;12.70;99.90
23347;DHT22;36852;45.466;11.066;2024-03-02T15:26:35;12.70;99.90
23347;DHT22;36852;45.466;11.066;2024-03-02T15:29:06;12.70;99.90
23347;DHT22;36852;45.466;11.066;2024-03-02T15:31:36;12.70;99.90
23347;DHT22;36852;45.466;11.066;2024-03-02T15:34:08;12.70;99.90
23347;DHT22;36852;45.466;11.066;2024-03-02T15:36:40;12.70;99.90
23347;DHT22;36852;45.466;11.066;2024-03-02T15:39:09;12.70;99.90
23347;DHT22;36852;45.466;11.066;2024-03-02T15:41:44;12.70;99.90
23347;DHT22;36852;45.466;11.066;2024-03-02T15:44:12;12.70;99.90
23347;DHT22;36852;45.466;11.066;2024-03-02T15:46:39;12.70;99.90
23347;DHT22;36852;45.466;11.066;2024-03-02T15:49:11;12.70;99.90
23347;DHT22;36852;45.466;11.066;2024-03-02T15:51:39;12.70;99.90
23347;DHT22;36852;45.466;11.066;2024-03-02T15:54:09;12.80;99.90
23347;DHT22;36852;45.466;11.066;2024-03-02T15:56:39;12.80;99.90
23347;DHT22;36852;45.466;11.066;2024-03-02T15:59:11;12.70;99.90
23347;DHT22;36852;45.466;11.066;2024-03-02T16:01:39;12.80;99.90
23347;DHT22;36852;45.466;11.066;2024-03-02T16:04:09;12.70;99.90
23347;DHT22;36852;45.466;11.066;2024-03-02T16:06:37;12.80;99.90
23347;DHT22;36852;45.466;11.066;2024-03-02T16:15:19;12.60;99.90
23347;DHT22;36852;45.466;11.066;2024-03-02T16:18:05;12.70;99.90
23347;DHT22;36852;45.466;11.066;2024-03-02T16:20:36;12.70;99.90
23347;DHT22;36852;45.466;11.066;2024-03-02T16:23:07;12.70;99.90
23347;DHT22;36852;45.466;11.066;2024-03-02T16:57:33;12.60;99.90
23347;DHT22;36852;45.466;11.066;2024-03-02T17:15:39;12.50;99.90
23347;DHT22;36852;45.466;11.066;2024-03-02T17:24:36;12.70;99.90
23347;DHT22;36852;45.466;11.066;2024-03-02T17:27:07;12.70;99.90
23347;DHT22;36852;45.466;11.066;2024-03-02T17:29:38;12.60;99.90
23347;DHT22;36852;45.466;11.066;2024-03-02T22:35:43;10.40;99.90
